sensor_id;sensor_type;location;lat;lon;timestamp;P1;durP1;ratioP1;P2;durP2;ratioP2
72935;SDS011;61085;48.804;9.228;2022-08-03T00:01:50;6.60;;;6.10;;
72935;SDS011;61085;48.804;9.228;2022-08-03T00:04:16;7.60;;;6.70;;
72935;SDS011;61085;48.804;9.228;2022-08-03T00:06:41;7.40;;;6.77;;
72935;SDS011;61085;48.804;9.228;2022-08-03T00:09:07;7.77;;;6.90;;
72935;SDS011;61085;48.804;9.228;2022-08-03T00:11:33;7.55;;;6.90;;
72935;SDS011;61085;48.804;9.228;2022-08-03T00:14:00;7.93;;;7.30;;
72935;SDS011;61085;48.804;9.228;2022-08-03T00:16:26;7.87;;;7.10;;
72935;SDS011;61085;48.804;9.228;2022-08-03T00:18:52;8.20;;;7.37;;
72935;SDS011;61085;48.804;9.228;2022-08-03T00:21:17;10.13;;;7.23;;
72935;SDS011;61085;48.804;9.228;2022-08-03T00:23:43;6.95;;;6.30;;
72935;SDS011;61085;48.804;9.228;2022-08-03T00:26:09;7.47;;;6.77;;
72935;SDS011;61085;48.804;9.228;2022-08-03T00:28:35;6.90;;;6.40;;
72935;SDS011;61085;48.804;9.228;2022-08-03T00:31:00;7.43;;;6.73;;
72935;SDS011;61085;48.804;9.228;2022-08-03T00:33:26;6.90;;;6.30;;
72935;SDS011;61085;48.804;9.228;2022-08-03T00:35:51;6.97;;;6.47;;
72935;SDS011;61085;48.804;9.228;2022-08-03T00:38:17;6.97;;;6.40;;
72935;SDS011;61085;48.804;9.228;2022-08-03T00:40:44;7.38;;;6.70;;
72935;SDS011;61085;48.804;9.228;2022-08-03T00:43:09;7.57;;;6.20;;
72935;SDS011;61085;48.804;9.228;2022-08-03T00:45:36;7.23;;;6.63;;
72935;SDS011;61085;48.804;9.228;2022-08-03T00:48:05;7.78;;;7.00;;
72935;SDS011;61085;48.804;9.228;2022-08-03T00:50:34;7.55;;;7.10;;
72935;SDS011;61085;48.804;9.228;2022-08-03T00:53:04;7.32;;;6.15;;
72935;SDS011;61085;48.804;9.228;2022-08-03T00:55:34;7.40;;;6.50;;
72935;SDS011;61085;48.804;9.228;2022-08-03T00:58:01;7.07;;;6.38;;
72935;SDS011;61085;48.804;9.228;2022-08-03T01:00:30;7.20;;;6.55;;
72935;SDS011;61085;48.804;9.228;2022-08-03T01:02:56;6.93;;;6.53;;
72935;SDS011;61085;48.804;9.228;2022-08-03T01:05:22;7.80;;;7.20;;
72935;SDS011;61085;48.804;9.228;2022-08-03T01:15:45;7.13;;;6.40;;
72935;SDS011;61085;48.804;9.228;2022-08-03T01:21:12;6.82;;;6.28;;
72935;SDS011;61085;48.804;9.228;2022-08-03T01:26:27;7.32;;;6.78;;
72935;SDS011;61085;48.804;9.228;2022-08-03T01:29:10;6.97;;;6.47;;
72935;SDS011;61085;48.804;9.228;2022-08-03T01:31:40;7.30;;;6.70;;
72935;SDS011;61085;48.804;9.228;2022-08-03T01:34:13;7.00;;;6.50;;
72935;SDS011;61085;48.804;9.228;2022-08-03T01:36:47;11.18;;;7.13;;
72935;SDS011;61085;48.804;9.228;2022-08-03T01:39:16;6.82;;;6.28;;
72935;SDS011;61085;48.804;9.228;2022-08-03T01:41:45;7.13;;;6.50;;
72935;SDS011;61085;48.804;9.228;2022-08-03T01:44:14;6.85;;;6.35;;
72935;SDS011;61085;48.804;9.228;2022-08-03T01:46:41;7.43;;;6.82;;
72935;SDS011;61085;48.804;9.228;2022-08-03T01:49:08;7.18;;;6.57;;
72935;SDS011;61085;48.804;9.228;2022-08-03T01:51:37;7.25;;;6.65;;
72935;SDS011;61085;48.804;9.228;2022-08-03T01:54:05;7.10;;;6.55;;
72935;SDS011;61085;48.804;9.228;2022-08-03T01:56:33;7.70;;;7.10;;
72935;SDS011;61085;48.804;9.228;2022-08-03T01:59:00;7.97;;;6.53;;
72935;SDS011;61085;48.804;9.228;2022-08-03T02:01:27;7.15;;;6.65;;
72935;SDS011;61085;48.804;9.228;2022-08-03T02:03:53;6.40;;;5.72;;
72935;SDS011;61085;48.804;9.228;2022-08-03T02:06:21;6.40;;;5.90;;
72935;SDS011;61085;48.804;9.228;2022-08-03T02:08:48;5.78;;;5.32;;
72935;SDS011;61085;48.804;9.228;2022-08-03T02:11:16;6.15;;;5.45;;
72935;SDS011;61085;48.804;9.228;2022-08-03T02:13:42;6.10;;;5.70;;
72935;SDS011;61085;48.804;9.228;2022-08-03T02:16:10;7.13;;;6.40;;
72935;SDS011;61085;48.804;9.228;2022-08-03T02:18:38;7.85;;;6.50;;
72935;SDS011;61085;48.804;9.228;2022-08-03T02:21:06;7.53;;;7.03;;
72935;SDS011;61085;48.804;9.228;2022-08-03T02:23:34;6.90;;;6.30;;
72935;SDS011;61085;48.804;9.228;2022-08-03T02:26:01;7.22;;;6.72;;
72935;SDS011;61085;48.804;9.228;2022-08-03T02:28:31;8.10;;;7.40;;
72935;SDS011;61085;48.804;9.228;2022-08-03T02:30:59;7.90;;;7.20;;
72935;SDS011;61085;48.804;9.228;2022-08-03T02:33:33;7.97;;;7.32;;
72935;SDS011;61085;48.804;9.228;2022-08-03T02:36:03;7.72;;;7.13;;
72935;SDS011;61085;48.804;9.228;2022-08-03T02:38:31;7.75;;;7.22;;
72935;SDS011;61085;48.804;9.228;2022-08-03T02:40:58;7.22;;;6.63;;
72935;SDS011;61085;48.804;9.228;2022-08-03T02:43:27;8.38;;;7.72;;
72935;SDS011;61085;48.804;9.228;2022-08-03T02:45:55;8.38;;;7.10;;
72935;SDS011;61085;48.804;9.228;2022-08-03T02:48:22;7.53;;;6.90;;
72935;SDS011;61085;48.804;9.228;2022-08-03T02:50:53;7.70;;;7.00;;
72935;SDS011;61085;48.804;9.228;2022-08-03T02:53:21;9.30;;;6.90;;
72935;SDS011;61085;48.804;9.228;2022-08-03T02:55:47;6.72;;;6.22;;
72935;SDS011;61085;48.804;9.228;2022-08-03T02:58:16;8.20;;;7.38;;
72935;SDS011;61085;48.804;9.228;2022-08-03T03:00:45;7.47;;;6.78;;
72935;SDS011;61085;48.804;9.228;2022-08-03T03:03:11;7.57;;;7.03;;
72935;SDS011;61085;48.804;9.228;2022-08-03T03:05:38;7.95;;;7.35;;
72935;SDS011;61085;48.804;9.228;2022-08-03T03:08:05;6.57;;;6.07;;
72935;SDS011;61085;48.804;9.228;2022-08-03T03:10:32;7.32;;;6.80;;
72935;SDS011;61085;48.804;9.228;2022-08-03T03:12:58;6.83;;;6.23;;
72935;SDS011;61085;48.804;9.228;2022-08-03T03:15:26;7.50;;;7.00;;
72935;SDS011;61085;48.804;9.228;2022-08-03T03:17:53;8.30;;;7.47;;
72935;SDS011;61085;48.804;9.228;2022-08-03T03:20:20;10.05;;;7.07;;
72935;SDS011;61085;48.804;9.228;2022-08-03T03:22:47;7.57;;;6.80;;
72935;SDS011;61085;48.804;9.228;2022-08-03T03:25:13;7.20;;;6.55;;
72935;SDS011;61085;48.804;9.228;2022-08-03T03:27:40;7.97;;;7.30;;
72935;SDS011;61085;48.804;9.228;2022-08-03T03:30:06;8.23;;;7.53;;
72935;SDS011;61085;48.804;9.228;2022-08-03T03:32:32;7.68;;;6.97;;
72935;SDS011;61085;48.804;9.228;2022-08-03T03:34:58;7.60;;;7.10;;
72935;SDS011;61085;48.804;9.228;2022-08-03T03:37:25;9.55;;;7.72;;
72935;SDS011;61085;48.804;9.228;2022-08-03T03:39:54;9.70;;;7.55;;
72935;SDS011;61085;48.804;9.228;2022-08-03T03:42:20;8.20;;;7.40;;
72935;SDS011;61085;48.804;9.228;2022-08-03T03:44:46;7.60;;;7.00;;
72935;SDS011;61085;48.804;9.228;2022-08-03T03:47:11;9.17;;;7.73;;
72935;SDS011;61085;48.804;9.228;2022-08-03T03:49:38;10.53;;;7.93;;
72935;SDS011;61085;48.804;9.228;2022-08-03T03:52:04;9.13;;;8.23;;
72935;SDS011;61085;48.804;9.228;2022-08-03T03:54:40;8.23;;;7.53;;
72935;SDS011;61085;48.804;9.228;2022-08-03T03:57:07;7.28;;;6.78;;
72935;SDS011;61085;48.804;9.228;2022-08-03T03:59:35;7.63;;;7.13;;
72935;SDS011;61085;48.804;9.228;2022-08-03T04:02:02;7.70;;;7.00;;
72935;SDS011;61085;48.804;9.228;2022-08-03T04:04:30;7.20;;;6.60;;
72935;SDS011;61085;48.804;9.228;2022-08-03T04:07:15;8.65;;;7.65;;
72935;SDS011;61085;48.804;9.228;2022-08-03T04:10:00;18.92;;;7.50;;
72935;SDS011;61085;48.804;9.228;2022-08-03T04:12:46;8.90;;;7.18;;
72935;SDS011;61085;48.804;9.228;2022-08-03T04:15:13;7.95;;;7.32;;
72935;SDS011;61085;48.804;9.228;2022-08-03T04:17:40;6.97;;;6.47;;
72935;SDS011;61085;48.804;9.228;2022-08-03T04:20:07;11.02;;;7.05;;
72935;SDS011;61085;48.804;9.228;2022-08-03T04:22:34;9.85;;;7.15;;
72935;SDS011;61085;48.804;9.228;2022-08-03T04:25:02;11.10;;;7.13;;
72935;SDS011;61085;48.804;9.228;2022-08-03T04:27:36;6.93;;;6.43;;
72935;SDS011;61085;48.804;9.228;2022-08-03T04:30:04;6.35;;;5.80;;
72935;SDS011;61085;48.804;9.228;2022-08-03T04:32:34;6.43;;;5.80;;
72935;SDS011;61085;48.804;9.228;2022-08-03T04:35:01;6.93;;;6.20;;
72935;SDS011;61085;48.804;9.228;2022-08-03T04:40:02;5.40;;;5.10;;
72935;SDS011;61085;48.804;9.228;2022-08-03T04:42:32;6.20;;;5.70;;
72935;SDS011;61085;48.804;9.228;2022-08-03T04:44:59;6.43;;;5.67;;
72935;SDS011;61085;48.804;9.228;2022-08-03T04:47:32;9.00;;;6.27;;
72935;SDS011;61085;48.804;9.228;2022-08-03T04:50:01;6.87;;;6.00;;
72935;SDS011;61085;48.804;9.228;2022-08-03T04:52:27;6.67;;;5.77;;
72935;SDS011;61085;48.804;9.228;2022-08-03T04:54:54;8.33;;;5.60;;
72935;SDS011;61085;48.804;9.228;2022-08-03T04:57:20;8.13;;;5.80;;
72935;SDS011;61085;48.804;9.228;2022-08-03T04:59:45;6.67;;;5.97;;
72935;SDS011;61085;48.804;9.228;2022-08-03T05:02:13;7.30;;;5.40;;
72935;SDS011;61085;48.804;9.228;2022-08-03T05:04:40;5.77;;;5.30;;
72935;SDS011;61085;48.804;9.228;2022-08-03T05:07:10;6.13;;;5.43;;
72935;SDS011;61085;48.804;9.228;2022-08-03T05:09:39;9.97;;;5.00;;
72935;SDS011;61085;48.804;9.228;2022-08-03T05:12:05;5.03;;;4.63;;
72935;SDS011;61085;48.804;9.228;2022-08-03T05:14:31;6.70;;;5.07;;
72935;SDS011;61085;48.804;9.228;2022-08-03T05:16:57;5.33;;;4.87;;
72935;SDS011;61085;48.804;9.228;2022-08-03T05:19:23;5.23;;;3.97;;
72935;SDS011;61085;48.804;9.228;2022-08-03T05:21:49;5.50;;;4.20;;
72935;SDS011;61085;48.804;9.228;2022-08-03T05:24:14;4.33;;;4.03;;
72935;SDS011;61085;48.804;9.228;2022-08-03T05:26:40;4.10;;;3.90;;
72935;SDS011;61085;48.804;9.228;2022-08-03T05:29:06;4.73;;;4.33;;
72935;SDS011;61085;48.804;9.228;2022-08-03T05:31:31;6.23;;;3.90;;
72935;SDS011;61085;48.804;9.228;2022-08-03T05:33:57;3.40;;;3.20;;
72935;SDS011;61085;48.804;9.228;2022-08-03T05:36:22;6.40;;;4.70;;
72935;SDS011;61085;48.804;9.228;2022-08-03T05:38:48;4.50;;;3.40;;
72935;SDS011;61085;48.804;9.228;2022-08-03T05:41:14;5.73;;;3.23;;
72935;SDS011;61085;48.804;9.228;2022-08-03T05:43:40;3.63;;;3.03;;
72935;SDS011;61085;48.804;9.228;2022-08-03T05:46:05;3.43;;;3.23;;
72935;SDS011;61085;48.804;9.228;2022-08-03T05:48:31;5.43;;;2.83;;
72935;SDS011;61085;48.804;9.228;2022-08-03T05:50:57;3.33;;;3.13;;
72935;SDS011;61085;48.804;9.228;2022-08-03T05:53:22;3.43;;;2.97;;
72935;SDS011;61085;48.804;9.228;2022-08-03T05:55:48;6.33;;;3.60;;
72935;SDS011;61085;48.804;9.228;2022-08-03T05:58:13;3.27;;;2.97;;
72935;SDS011;61085;48.804;9.228;2022-08-03T06:00:39;3.13;;;2.83;;
72935;SDS011;61085;48.804;9.228;2022-08-03T06:03:05;3.53;;;2.77;;
72935;SDS011;61085;48.804;9.228;2022-08-03T06:05:30;2.83;;;2.63;;
72935;SDS011;61085;48.804;9.228;2022-08-03T06:08:00;2.77;;;2.57;;
72935;SDS011;61085;48.804;9.228;2022-08-03T06:10:26;5.73;;;3.20;;
72935;SDS011;61085;48.804;9.228;2022-08-03T06:12:52;3.70;;;2.90;;
72935;SDS011;61085;48.804;9.228;2022-08-03T06:15:18;5.03;;;3.30;;
72935;SDS011;61085;48.804;9.228;2022-08-03T06:17:47;5.70;;;3.60;;
72935;SDS011;61085;48.804;9.228;2022-08-03T06:20:17;5.07;;;3.80;;
72935;SDS011;61085;48.804;9.228;2022-08-03T06:22:44;5.27;;;3.60;;
72935;SDS011;61085;48.804;9.228;2022-08-03T06:25:10;7.13;;;5.20;;
72935;SDS011;61085;48.804;9.228;2022-08-03T06:27:36;4.00;;;3.70;;
72935;SDS011;61085;48.804;9.228;2022-08-03T06:30:04;3.83;;;3.60;;
72935;SDS011;61085;48.804;9.228;2022-08-03T06:32:32;3.30;;;3.10;;
72935;SDS011;61085;48.804;9.228;2022-08-03T06:34:58;5.40;;;4.30;;
72935;SDS011;61085;48.804;9.228;2022-08-03T06:37:24;4.20;;;4.00;;
72935;SDS011;61085;48.804;9.228;2022-08-03T06:39:51;4.60;;;4.20;;
72935;SDS011;61085;48.804;9.228;2022-08-03T06:42:18;4.97;;;4.17;;
72935;SDS011;61085;48.804;9.228;2022-08-03T06:44:43;4.07;;;3.80;;
72935;SDS011;61085;48.804;9.228;2022-08-03T06:47:09;6.80;;;3.70;;
72935;SDS011;61085;48.804;9.228;2022-08-03T06:49:35;3.83;;;3.63;;
72935;SDS011;61085;48.804;9.228;2022-08-03T06:52:01;5.00;;;4.10;;
72935;SDS011;61085;48.804;9.228;2022-08-03T06:54:27;4.47;;;4.03;;
72935;SDS011;61085;48.804;9.228;2022-08-03T06:56:53;6.90;;;4.10;;
72935;SDS011;61085;48.804;9.228;2022-08-03T06:59:18;4.80;;;3.90;;
72935;SDS011;61085;48.804;9.228;2022-08-03T07:01:44;4.00;;;3.70;;
72935;SDS011;61085;48.804;9.228;2022-08-03T07:04:10;4.33;;;3.93;;
72935;SDS011;61085;48.804;9.228;2022-08-03T07:06:38;3.83;;;3.40;;
72935;SDS011;61085;48.804;9.228;2022-08-03T07:09:04;4.93;;;3.80;;
72935;SDS011;61085;48.804;9.228;2022-08-03T07:11:30;3.90;;;3.60;;
72935;SDS011;61085;48.804;9.228;2022-08-03T07:13:55;3.63;;;3.30;;
72935;SDS011;61085;48.804;9.228;2022-08-03T07:16:21;5.07;;;3.77;;
72935;SDS011;61085;48.804;9.228;2022-08-03T07:18:47;3.73;;;3.50;;
72935;SDS011;61085;48.804;9.228;2022-08-03T07:21:13;7.80;;;3.10;;
72935;SDS011;61085;48.804;9.228;2022-08-03T07:23:40;6.40;;;3.33;;
72935;SDS011;61085;48.804;9.228;2022-08-03T07:26:06;3.73;;;3.53;;
72935;SDS011;61085;48.804;9.228;2022-08-03T07:28:32;3.10;;;2.70;;
72935;SDS011;61085;48.804;9.228;2022-08-03T07:30:57;5.90;;;2.90;;
72935;SDS011;61085;48.804;9.228;2022-08-03T07:33:23;3.13;;;2.93;;
72935;SDS011;61085;48.804;9.228;2022-08-03T07:35:49;3.40;;;2.67;;
72935;SDS011;61085;48.804;9.228;2022-08-03T07:38:15;3.00;;;2.63;;
72935;SDS011;61085;48.804;9.228;2022-08-03T07:40:41;4.23;;;3.13;;
72935;SDS011;61085;48.804;9.228;2022-08-03T07:43:06;3.20;;;3.00;;
72935;SDS011;61085;48.804;9.228;2022-08-03T07:45:32;3.07;;;2.87;;
72935;SDS011;61085;48.804;9.228;2022-08-03T07:47:57;5.00;;;2.87;;
72935;SDS011;61085;48.804;9.228;2022-08-03T07:50:24;5.90;;;3.03;;
72935;SDS011;61085;48.804;9.228;2022-08-03T07:52:50;2.90;;;2.70;;
72935;SDS011;61085;48.804;9.228;2022-08-03T07:55:23;3.70;;;2.80;;
72935;SDS011;61085;48.804;9.228;2022-08-03T07:58:06;3.93;;;3.40;;
72935;SDS011;61085;48.804;9.228;2022-08-03T08:00:46;4.40;;;3.20;;
72935;SDS011;61085;48.804;9.228;2022-08-03T08:03:12;4.23;;;3.10;;
72935;SDS011;61085;48.804;9.228;2022-08-03T08:05:38;3.70;;;3.07;;
72935;SDS011;61085;48.804;9.228;2022-08-03T08:08:03;3.27;;;3.07;;
72935;SDS011;61085;48.804;9.228;2022-08-03T08:10:29;3.27;;;3.07;;
72935;SDS011;61085;48.804;9.228;2022-08-03T08:12:56;3.70;;;3.40;;
72935;SDS011;61085;48.804;9.228;2022-08-03T08:15:22;2.93;;;2.73;;
72935;SDS011;61085;48.804;9.228;2022-08-03T08:17:52;5.43;;;3.23;;
72935;SDS011;61085;48.804;9.228;2022-08-03T08:20:20;3.20;;;3.00;;
72935;SDS011;61085;48.804;9.228;2022-08-03T08:22:47;2.80;;;2.60;;
72935;SDS011;61085;48.804;9.228;2022-08-03T08:25:13;2.87;;;2.60;;
72935;SDS011;61085;48.804;9.228;2022-08-03T08:27:40;3.03;;;2.60;;
72935;SDS011;61085;48.804;9.228;2022-08-03T08:30:10;2.70;;;2.50;;
72935;SDS011;61085;48.804;9.228;2022-08-03T08:32:37;2.50;;;2.30;;
72935;SDS011;61085;48.804;9.228;2022-08-03T08:35:03;2.33;;;2.13;;
72935;SDS011;61085;48.804;9.228;2022-08-03T08:37:30;2.20;;;2.00;;
72935;SDS011;61085;48.804;9.228;2022-08-03T08:39:56;4.00;;;2.57;;
72935;SDS011;61085;48.804;9.228;2022-08-03T08:42:21;2.17;;;1.70;;
72935;SDS011;61085;48.804;9.228;2022-08-03T08:44:47;7.83;;;1.83;;
72935;SDS011;61085;48.804;9.228;2022-08-03T08:47:13;3.10;;;1.60;;
72935;SDS011;61085;48.804;9.228;2022-08-03T08:49:39;1.90;;;1.80;;
72935;SDS011;61085;48.804;9.228;2022-08-03T08:52:07;4.93;;;2.23;;
72935;SDS011;61085;48.804;9.228;2022-08-03T08:54:33;1.67;;;1.57;;
72935;SDS011;61085;48.804;9.228;2022-08-03T08:57:02;3.20;;;2.17;;
72935;SDS011;61085;48.804;9.228;2022-08-03T08:59:31;1.50;;;1.40;;
72935;SDS011;61085;48.804;9.228;2022-08-03T09:02:00;1.80;;;1.60;;
72935;SDS011;61085;48.804;9.228;2022-08-03T09:04:29;1.57;;;1.47;;
72935;SDS011;61085;48.804;9.228;2022-08-03T09:06:56;1.97;;;1.37;;
72935;SDS011;61085;48.804;9.228;2022-08-03T09:09:22;1.30;;;1.20;;
72935;SDS011;61085;48.804;9.228;2022-08-03T09:11:48;1.53;;;1.20;;
72935;SDS011;61085;48.804;9.228;2022-08-03T09:14:14;1.33;;;1.23;;
72935;SDS011;61085;48.804;9.228;2022-08-03T09:16:58;3.37;;;1.60;;
72935;SDS011;61085;48.804;9.228;2022-08-03T09:19:30;4.20;;;1.50;;
72935;SDS011;61085;48.804;9.228;2022-08-03T09:24:35;3.57;;;1.30;;
72935;SDS011;61085;48.804;9.228;2022-08-03T09:27:03;1.57;;;1.30;;
72935;SDS011;61085;48.804;9.228;2022-08-03T09:29:35;1.70;;;1.60;;
72935;SDS011;61085;48.804;9.228;2022-08-03T09:32:01;1.50;;;1.40;;
72935;SDS011;61085;48.804;9.228;2022-08-03T09:34:28;1.87;;;1.77;;
72935;SDS011;61085;48.804;9.228;2022-08-03T09:36:54;3.73;;;1.43;;
72935;SDS011;61085;48.804;9.228;2022-08-03T09:39:24;1.70;;;1.60;;
72935;SDS011;61085;48.804;9.228;2022-08-03T09:42:10;1.77;;;1.67;;
72935;SDS011;61085;48.804;9.228;2022-08-03T09:44:37;3.40;;;2.17;;
72935;SDS011;61085;48.804;9.228;2022-08-03T09:47:06;5.20;;;2.10;;
72935;SDS011;61085;48.804;9.228;2022-08-03T09:49:34;1.97;;;1.80;;
72935;SDS011;61085;48.804;9.228;2022-08-03T09:52:00;1.80;;;1.70;;
72935;SDS011;61085;48.804;9.228;2022-08-03T09:54:36;2.20;;;1.50;;
72935;SDS011;61085;48.804;9.228;2022-08-03T09:57:02;1.70;;;1.60;;
72935;SDS011;61085;48.804;9.228;2022-08-03T09:59:29;1.90;;;1.80;;
72935;SDS011;61085;48.804;9.228;2022-08-03T10:01:56;2.70;;;1.60;;
72935;SDS011;61085;48.804;9.228;2022-08-03T10:04:24;1.50;;;1.40;;
72935;SDS011;61085;48.804;9.228;2022-08-03T10:07:06;5.13;;;1.90;;
72935;SDS011;61085;48.804;9.228;2022-08-03T10:09:34;2.07;;;1.43;;
72935;SDS011;61085;48.804;9.228;2022-08-03T10:12:11;1.70;;;1.60;;
72935;SDS011;61085;48.804;9.228;2022-08-03T10:14:38;3.90;;;1.67;;
72935;SDS011;61085;48.804;9.228;2022-08-03T10:17:05;1.60;;;1.50;;
72935;SDS011;61085;48.804;9.228;2022-08-03T10:19:32;1.53;;;1.43;;
72935;SDS011;61085;48.804;9.228;2022-08-03T10:22:00;1.60;;;1.50;;
72935;SDS011;61085;48.804;9.228;2022-08-03T10:24:59;2.60;;;2.00;;
72935;SDS011;61085;48.804;9.228;2022-08-03T10:27:31;4.47;;;2.30;;
72935;SDS011;61085;48.804;9.228;2022-08-03T10:29:59;2.03;;;1.93;;
72935;SDS011;61085;48.804;9.228;2022-08-03T10:32:39;2.57;;;1.40;;
72935;SDS011;61085;48.804;9.228;2022-08-03T10:35:14;2.00;;;1.90;;
72935;SDS011;61085;48.804;9.228;2022-08-03T10:37:44;1.57;;;1.47;;
72935;SDS011;61085;48.804;9.228;2022-08-03T10:40:23;2.50;;;1.67;;
72935;SDS011;61085;48.804;9.228;2022-08-03T10:42:55;4.13;;;2.50;;
72935;SDS011;61085;48.804;9.228;2022-08-03T10:45:27;2.40;;;2.07;;
72935;SDS011;61085;48.804;9.228;2022-08-03T10:47:55;1.80;;;1.70;;
72935;SDS011;61085;48.804;9.228;2022-08-03T10:50:22;2.00;;;1.80;;
72935;SDS011;61085;48.804;9.228;2022-08-03T10:53:04;1.40;;;1.30;;
72935;SDS011;61085;48.804;9.228;2022-08-03T10:55:38;2.10;;;1.67;;
72935;SDS011;61085;48.804;9.228;2022-08-03T11:01:04;1.70;;;1.60;;
72935;SDS011;61085;48.804;9.228;2022-08-03T11:03:31;1.57;;;1.47;;
72935;SDS011;61085;48.804;9.228;2022-08-03T11:06:30;1.60;;;1.50;;
72935;SDS011;61085;48.804;9.228;2022-08-03T11:09:35;1.77;;;1.67;;
72935;SDS011;61085;48.804;9.228;2022-08-03T11:11:39;2.13;;;1.93;;
72935;SDS011;61085;48.804;9.228;2022-08-03T11:14:11;1.77;;;1.67;;
72935;SDS011;61085;48.804;9.228;2022-08-03T11:19:09;3.03;;;1.67;;
72935;SDS011;61085;48.804;9.228;2022-08-03T11:40:35;1.80;;;1.70;;
72935;SDS011;61085;48.804;9.228;2022-08-03T11:43:01;2.17;;;1.70;;
72935;SDS011;61085;48.804;9.228;2022-08-03T11:45:28;2.23;;;2.03;;
72935;SDS011;61085;48.804;9.228;2022-08-03T11:47:55;4.77;;;1.83;;
72935;SDS011;61085;48.804;9.228;2022-08-03T11:50:22;1.90;;;1.80;;
72935;SDS011;61085;48.804;9.228;2022-08-03T11:52:49;1.73;;;1.63;;
72935;SDS011;61085;48.804;9.228;2022-08-03T11:55:16;3.80;;;1.90;;
72935;SDS011;61085;48.804;9.228;2022-08-03T11:57:44;1.97;;;1.63;;
72935;SDS011;61085;48.804;9.228;2022-08-03T12:02:56;1.73;;;1.63;;
72935;SDS011;61085;48.804;9.228;2022-08-03T12:07:59;1.70;;;1.60;;
72935;SDS011;61085;48.804;9.228;2022-08-03T12:10:25;2.07;;;1.97;;
72935;SDS011;61085;48.804;9.228;2022-08-03T12:12:54;1.83;;;1.73;;
72935;SDS011;61085;48.804;9.228;2022-08-03T12:15:28;1.93;;;1.70;;
72935;SDS011;61085;48.804;9.228;2022-08-03T12:17:58;2.10;;;1.90;;
72935;SDS011;61085;48.804;9.228;2022-08-03T12:20:27;2.63;;;1.90;;
72935;SDS011;61085;48.804;9.228;2022-08-03T12:23:00;1.77;;;1.67;;
72935;SDS011;61085;48.804;9.228;2022-08-03T12:25:29;1.60;;;1.50;;
72935;SDS011;61085;48.804;9.228;2022-08-03T12:28:05;2.30;;;1.70;;
72935;SDS011;61085;48.804;9.228;2022-08-03T12:30:41;2.10;;;1.90;;
72935;SDS011;61085;48.804;9.228;2022-08-03T12:35:44;1.83;;;1.70;;
72935;SDS011;61085;48.804;9.228;2022-08-03T12:38:11;2.23;;;1.77;;
72935;SDS011;61085;48.804;9.228;2022-08-03T12:40:37;1.70;;;1.60;;
72935;SDS011;61085;48.804;9.228;2022-08-03T12:43:11;1.60;;;1.50;;
72935;SDS011;61085;48.804;9.228;2022-08-03T12:45:38;1.87;;;1.77;;
72935;SDS011;61085;48.804;9.228;2022-08-03T12:48:06;1.90;;;1.80;;
72935;SDS011;61085;48.804;9.228;2022-08-03T12:50:35;1.73;;;1.63;;
72935;SDS011;61085;48.804;9.228;2022-08-03T12:53:03;1.80;;;1.70;;
72935;SDS011;61085;48.804;9.228;2022-08-03T12:55:31;2.90;;;1.90;;
72935;SDS011;61085;48.804;9.228;2022-08-03T12:58:07;2.33;;;2.13;;
72935;SDS011;61085;48.804;9.228;2022-08-03T13:00:35;3.10;;;1.67;;
72935;SDS011;61085;48.804;9.228;2022-08-03T13:03:07;2.07;;;1.97;;
72935;SDS011;61085;48.804;9.228;2022-08-03T13:05:43;2.20;;;2.03;;
72935;SDS011;61085;48.804;9.228;2022-08-03T13:08:22;1.97;;;1.60;;
72935;SDS011;61085;48.804;9.228;2022-08-03T13:10:51;4.37;;;1.67;;
72935;SDS011;61085;48.804;9.228;2022-08-03T13:13:17;2.03;;;1.93;;
72935;SDS011;61085;48.804;9.228;2022-08-03T13:15:44;1.83;;;1.73;;
72935;SDS011;61085;48.804;9.228;2022-08-03T13:18:10;2.27;;;1.83;;
72935;SDS011;61085;48.804;9.228;2022-08-03T13:20:35;2.23;;;1.70;;
72935;SDS011;61085;48.804;9.228;2022-08-03T13:23:01;2.13;;;1.93;;
72935;SDS011;61085;48.804;9.228;2022-08-03T13:25:27;1.77;;;1.67;;
72935;SDS011;61085;48.804;9.228;2022-08-03T13:27:52;1.80;;;1.70;;
72935;SDS011;61085;48.804;9.228;2022-08-03T13:30:18;2.17;;;1.97;;
72935;SDS011;61085;48.804;9.228;2022-08-03T13:32:43;2.83;;;1.90;;
72935;SDS011;61085;48.804;9.228;2022-08-03T13:35:09;1.70;;;1.60;;
72935;SDS011;61085;48.804;9.228;2022-08-03T13:37:35;1.80;;;1.70;;
72935;SDS011;61085;48.804;9.228;2022-08-03T13:40:02;2.50;;;1.83;;
72935;SDS011;61085;48.804;9.228;2022-08-03T13:42:30;1.73;;;1.63;;
72935;SDS011;61085;48.804;9.228;2022-08-03T13:44:57;2.17;;;2.07;;
72935;SDS011;61085;48.804;9.228;2022-08-03T13:47:23;1.87;;;1.77;;
72935;SDS011;61085;48.804;9.228;2022-08-03T13:49:49;1.73;;;1.63;;
72935;SDS011;61085;48.804;9.228;2022-08-03T13:52:17;2.20;;;2.07;;
72935;SDS011;61085;48.804;9.228;2022-08-03T13:54:43;1.90;;;1.80;;
72935;SDS011;61085;48.804;9.228;2022-08-03T13:57:09;4.47;;;2.10;;
72935;SDS011;61085;48.804;9.228;2022-08-03T13:59:35;1.83;;;1.73;;
72935;SDS011;61085;48.804;9.228;2022-08-03T14:02:01;2.10;;;1.63;;
72935;SDS011;61085;48.804;9.228;2022-08-03T14:04:28;1.70;;;1.53;;
72935;SDS011;61085;48.804;9.228;2022-08-03T14:06:53;4.90;;;2.10;;
72935;SDS011;61085;48.804;9.228;2022-08-03T14:09:19;2.00;;;1.90;;
72935;SDS011;61085;48.804;9.228;2022-08-03T14:11:44;1.90;;;1.80;;
72935;SDS011;61085;48.804;9.228;2022-08-03T14:14:10;1.93;;;1.80;;
72935;SDS011;61085;48.804;9.228;2022-08-03T14:16:36;1.87;;;1.47;;
72935;SDS011;61085;48.804;9.228;2022-08-03T14:19:02;3.03;;;2.23;;
72935;SDS011;61085;48.804;9.228;2022-08-03T14:21:29;2.20;;;1.67;;
72935;SDS011;61085;48.804;9.228;2022-08-03T14:23:55;2.70;;;1.90;;
72935;SDS011;61085;48.804;9.228;2022-08-03T14:26:20;1.73;;;1.63;;
72935;SDS011;61085;48.804;9.228;2022-08-03T14:28:46;2.93;;;1.73;;
72935;SDS011;61085;48.804;9.228;2022-08-03T14:31:12;1.80;;;1.70;;
72935;SDS011;61085;48.804;9.228;2022-08-03T14:33:38;2.00;;;1.90;;
72935;SDS011;61085;48.804;9.228;2022-08-03T14:36:03;1.80;;;1.70;;
72935;SDS011;61085;48.804;9.228;2022-08-03T14:38:29;2.03;;;1.93;;
72935;SDS011;61085;48.804;9.228;2022-08-03T14:40:55;3.33;;;1.87;;
72935;SDS011;61085;48.804;9.228;2022-08-03T14:43:21;2.23;;;2.03;;
72935;SDS011;61085;48.804;9.228;2022-08-03T14:45:47;1.50;;;1.40;;
72935;SDS011;61085;48.804;9.228;2022-08-03T14:48:16;1.90;;;1.80;;
72935;SDS011;61085;48.804;9.228;2022-08-03T14:50:42;2.03;;;1.93;;
72935;SDS011;61085;48.804;9.228;2022-08-03T14:53:08;2.63;;;2.00;;
72935;SDS011;61085;48.804;9.228;2022-08-03T14:55:34;3.00;;;2.00;;
72935;SDS011;61085;48.804;9.228;2022-08-03T14:58:00;4.20;;;1.80;;
72935;SDS011;61085;48.804;9.228;2022-08-03T15:00:30;1.80;;;1.70;;
72935;SDS011;61085;48.804;9.228;2022-08-03T15:02:56;1.80;;;1.70;;
72935;SDS011;61085;48.804;9.228;2022-08-03T15:05:21;1.60;;;1.50;;
72935;SDS011;61085;48.804;9.228;2022-08-03T15:07:47;1.90;;;1.80;;
72935;SDS011;61085;48.804;9.228;2022-08-03T15:10:13;1.97;;;1.87;;
72935;SDS011;61085;48.804;9.228;2022-08-03T15:12:38;1.80;;;1.70;;
72935;SDS011;61085;48.804;9.228;2022-08-03T15:15:04;1.60;;;1.50;;
72935;SDS011;61085;48.804;9.228;2022-08-03T15:17:30;2.63;;;1.80;;
72935;SDS011;61085;48.804;9.228;2022-08-03T15:19:55;1.87;;;1.77;;
72935;SDS011;61085;48.804;9.228;2022-08-03T15:22:21;2.00;;;1.90;;
72935;SDS011;61085;48.804;9.228;2022-08-03T15:24:47;1.90;;;1.80;;
72935;SDS011;61085;48.804;9.228;2022-08-03T15:27:13;1.60;;;1.50;;
72935;SDS011;61085;48.804;9.228;2022-08-03T15:29:39;2.67;;;2.40;;
72935;SDS011;61085;48.804;9.228;2022-08-03T15:32:04;1.93;;;1.80;;
72935;SDS011;61085;48.804;9.228;2022-08-03T15:34:30;3.73;;;1.73;;
72935;SDS011;61085;48.804;9.228;2022-08-03T15:36:56;1.70;;;1.60;;
72935;SDS011;61085;48.804;9.228;2022-08-03T15:39:21;1.60;;;1.50;;
72935;SDS011;61085;48.804;9.228;2022-08-03T15:41:47;1.70;;;1.60;;
72935;SDS011;61085;48.804;9.228;2022-08-03T15:44:12;1.93;;;1.60;;